Station info - map view · info · telemetry · weather · raw · status · beacons · messages · bulletins · browse · moving · my account
Callsign, ship name or locator: Clear       
It is possible to search using wildcards (*?) after a prefix. Example: OH*
APRS station DL7KHB-9 - show graphs
Map loading...
Mic-E message: En route
Location: 48°47.38' N 9°13.26' E - locator JN48OS69MM - show map - static map
2.1 miles East bearing 76° from Stuttgart, Regierungsbezirk Stuttgart, Baden-Württemberg, Germany [?]
5.1 miles Northwest bearing 312° from Esslingen, Baden-Württemberg, Germany
7.8 miles Northwest bearing 326° from Denkendorf, Regierungsbezirk Stuttgart, Baden-Württemberg, Germany
59.1 miles Southeast bearing 144° from Mannheim, Baden-Württemberg, Germany
Last position: 2019-02-04 11:33:54 EST (14d 14h18m ago)
2019-02-04 17:33:54 CET local time at Stuttgart, Germany [?]
Altitude: 735 ft
Course: 134°
Speed: 42 MPH
Device: Yaesu: FTM-350 (rig)
Last path: DL7KHB-9>TX4WS8 via WIDE1-1,WIDE2-1,qAR,DB0RMK (good)
Positions stored: 15191
Other SSIDs: DL7KHB-4 DL7KHB-5
Stations near current position of DL7KHB-9 - show more
callsign distance last heard - EST      callsign distance last heard - EST
DL6SH-90.9 miles 101°2019-02-18 10:25:36 ok1vhb-i1.1 miles 141°2019-02-18 09:26:06
DO1SRT1.8 miles 219°2019-02-14 17:40:31 DL2NS-92.0 miles 359°2019-02-08 07:17:17
DL2NS-DP2.0 miles 360°2019-02-06 09:56:25 DL6SAH B2.5 miles 273°2019-02-11 11:58:16
DL6SAH-B2.5 miles 273°2019-02-11 08:16:26 DO7RL2.6 miles 11°2019-01-21 15:21:41
DO7OG-93.1 miles 50°2019-02-08 12:27:10 DL1SER-93.2 miles 69°2019-02-18 15:29:06
DL6SW-103.3 miles 239°2019-02-01 10:31:38 DB0LBG-DP3.7 miles 111°2019-02-19 01:50:41
DO2ML-93.9 miles 62°2019-02-19 01:51:46 DG1SIA-54.0 miles 58°2019-02-18 09:28:48
DL2GBG-94.0 miles 254°2019-02-18 14:23:30 DL2GBG4.1 miles 260°2019-02-05 16:16:35
DG6SDY-B4.5 miles 353°2019-02-18 17:35:47 DL9SBV-104.7 miles 77°2019-02-17 09:49:26
DG3SDK-94.8 miles 177°2019-02-07 16:47:33 DL4SAL-95.1 miles 341°2019-02-16 07:09:05
Stations which heard DL7KHB-9 directly on radio –
callsign pkts first heard - EST last heard longest (tx => rx) longest at - EST
DB0RZ 9 2019-02-02 06:09:42 2019-02-02 08:54:42 JN48RP > JN48SD 34.7 miles 172° 2019-02-02 08:54:42
DB0ZD 4 2019-02-02 06:33:32 2019-02-02 08:22:43 JN48QM > JN57CM 78.3 miles 152° 2019-02-02 06:33:32
DB0RO 4 2019-02-02 05:07:31 2019-02-02 05:34:37 JN48RN > JN49AF 78.3 miles 307° 2019-02-02 05:34:37
DB0CI 1 2019-02-02 06:14:26 2019-02-02 06:14:26 JN48RN > JN48EF 52.4 miles 243° 2019-02-02 06:14:26
DB0HZG 10 2019-02-02 06:39:42 2019-02-04 11:26:44 JN48TM > JN48MP 28.4 miles 286° 2019-02-02 08:19:18
DB0RBB-10 2 2019-02-02 06:55:21 2019-02-04 11:21:03 JN48SM > JN48MQ 28.3 miles 295° 2019-02-02 06:55:21
DB0SAA-10 2 2019-02-02 05:12:23 2019-02-02 08:32:13 JN48RN > JN58BT 33.8 miles 62° 2019-02-02 05:12:23
DL6SH-10 2 2019-02-02 06:53:51 2019-02-04 11:23:20 JN48SM > JN48SW 30.0 miles 0° 2019-02-02 06:53:51
DB0RMK 7 2019-02-02 04:58:07 2019-02-04 11:33:54 JN48TM > JN48RV 27.2 miles 343° 2019-02-02 08:14:47
DB0XHI-10 2 2019-02-02 06:44:38 2019-02-04 11:24:30 JN48OS > JN48OM 17.8 miles 174° 2019-02-04 11:24:30
DB0WV-10 15 2019-02-02 06:51:15 2019-02-02 08:22:42 JN48TM > JN47QT 48.8 miles 192° 2019-02-02 08:22:42
DB0DLG-10 4 2019-02-02 06:50:36 2019-02-02 07:54:32 JN48SM > JN58FM 39.8 miles 89° 2019-02-02 06:50:36
DB0OFI 120 2019-02-02 04:41:34 2019-02-04 11:32:44 JN48TM > JN48PR 19.9 miles 313° 2019-02-02 08:14:40
DB0TE 1 2019-02-02 06:57:15 2019-02-02 06:57:15 JN48TM > JN48XK 17.4 miles 113° 2019-02-02 06:57:15
DB0HDH 4 2019-02-02 07:00:09 2019-02-02 08:26:09 JN48TM > JN58BQ 26.6 miles 63° 2019-02-02 07:00:09
DB0WS 13 2019-02-02 04:46:18 2019-02-04 11:30:03 JN48TM > JN48RT 22.0 miles 335° 2019-02-02 07:14:29
DB0HOR-10 1 2019-02-02 05:08:08 2019-02-02 05:08:08 JN48QN > JN48CN 54.0 miles 271° 2019-02-02 05:08:08
DB0BIB 6 2019-02-02 06:59:34 2019-02-02 08:23:49 JN48TM > JN48VC 30.3 miles 163° 2019-02-02 08:23:49
DN1US 1 2019-02-02 06:25:34 2019-02-02 06:25:34 JN48RN > JN48UJ 17.7 miles 130° 2019-02-02 06:25:34

Only position packets which were originated by the station are shown here. The range statistics show some extra long hops, because some digipeaters do not correctly add themselves to the digipeater path. Please check the raw packets.
About this site
This page shows real-time information collected from the Automatic Position Reporting System Internet network (APRS-IS). APRS is used by amateur (ham) radio operators to transmit real-time position information, weather data, telemetry and messages over the radio. A vehicle equipped with a GPS receiver, a VHF transmitter or HF transceiver and a small computer device called a tracker transmits it's location, speed and course in a small data packet, which is then received by a nearby iGate receiving site which forwards the packet on the Internet. Systems connected to the Internet can send information on the APRS-IS without a radio transmitter, or collect and display information transmitted anywhere in the world.
FAQ · Blog · Discussion group · Linking to aprs.fi · AIS sites · Service status · Database statistics · Advertising on aprs.fi · Technical details · API · Change log · Planned changes · Credits and thanks · Terms Of Service · iPhone/iPad APRS